This is the latest recevied weather packets stored in our database for station/object K9ABJ. If no packets are shown the sender has not sent any weather packets the latest 10 day(s).
| Time | Temp. | Humidity | Pressure | Rain* | Wind** | Luminosity | Snow |
|---|---|---|---|---|---|---|---|
| 1787941769 | 27.78° C | 52% | 1021 hPa | 0 mm | - | 751 W/m² | - |
| 1787941467 | 27.22° C | 55% | 1021.3 hPa | 0 mm | - | 762 W/m² | - |
| 1787941162 | 28.89° C | 54% | 1021.2 hPa | 0 mm | - | 756 W/m² | - |
| 1787940857 | 26.67° C | 56% | 1021.1 hPa | 0 mm | - | 736 W/m² | - |
| 1787940555 | 27.78° C | 54% | 1021.2 hPa | 0 mm | - | 717 W/m² | - |
| 1787940255 | 27.22° C | 55% | 1021.4 hPa | 0 mm | - | 741 W/m² | - |
| 1787939949 | 29.44° C | 52% | 1021.3 hPa | 0 mm | - | 733 W/m² | - |
| 1787939649 | 29.44° C | 51% | 1021.3 hPa | 0 mm | - | 663 W/m² | - |
| 1787939344 | 27.22° C | 57% | 1021.3 hPa | 0 mm | - | 695 W/m² | - |
| 1787939044 | 26.11° C | 56% | 1021.3 hPa | 0 mm | - | 668 W/m² | - |
| 1787938742 | 26.11° C | 58% | 1021.3 hPa | 0 mm | - | 661 W/m² | - |
| 1787938439 | 26.11° C | 57% | 1021.3 hPa | 0 mm | - | 548 W/m² | - |
| 1787938134 | 26.11° C | 58% | 1021.4 hPa | 0 mm | - | 596 W/m² | - |
| 1787937829 | 27.78° C | 54% | 1021.4 hPa | 0 mm | - | 721 W/m² | - |
| 1787937525 | 26.67° C | 55% | 1021.5 hPa | 0 mm | - | 681 W/m² | - |
| 1787937221 | 26.11° C | 57% | 1021.6 hPa | 0 mm | - | 596 W/m² | - |
| 1787936916 | 25.56° C | 61% | 1021.6 hPa | 0 mm | - | 584 W/m² | - |
| 1787936615 | 26.67° C | 63% | 1021.7 hPa | 0 mm | - | 535 W/m² | - |
| 1787936314 | 25.56° C | 65% | 1021.6 hPa | 0 mm | - | 462 W/m² | - |
| 1787936010 | 25° C | 66% | 1021.7 hPa | 0 mm | - | 448 W/m² | - |
| 1787935706 | 26.11° C | 63% | 1021.8 hPa | 0 mm | - | 586 W/m² | - |
| 1787935402 | 27.78° C | 62% | 1022 hPa | 0 mm | - | 617 W/m² | - |
| 1787935098 | 24.44° C | 67% | 1021.7 hPa | 0 mm | - | 565 W/m² | - |
| 1787934793 | 25° C | 67% | 1021.6 hPa | 0 mm | - | 458 W/m² | - |
| 1787934492 | 25.56° C | 64% | 1021.6 hPa | 0 mm | - | 481 W/m² | - |
* Rain latest hour (hover to see other rain measurements)
** Current wind speed in m/s (hover to see current wind gust speed)